createdAt,value
2022-08-26T00:01:42.248Z,24.94
2022-08-26T00:04:12.555Z,24.88
2022-08-26T00:06:42.337Z,24.78
2022-08-26T00:09:16.812Z,24.83
2022-08-26T00:11:45.359Z,24.70
2022-08-26T00:14:13.877Z,24.73
2022-08-26T00:16:48.082Z,24.75
2022-08-26T00:19:16.647Z,24.78
2022-08-26T00:21:44.072Z,24.79
2022-08-26T00:24:11.297Z,24.82
2022-08-26T00:26:39.294Z,24.96
2022-08-26T00:29:08.783Z,25.09
2022-08-26T00:31:36.736Z,25.20
2022-08-26T00:34:04.467Z,25.36
2022-08-26T00:36:32.540Z,25.29
2022-08-26T00:38:59.718Z,25.25
2022-08-26T00:41:29.019Z,25.11
2022-08-26T00:43:56.405Z,25.17
2022-08-26T00:46:33.627Z,25.27
2022-08-26T00:49:20.423Z,25.24
2022-08-26T00:51:50.933Z,25.22
2022-08-26T00:54:19.341Z,25.26
2022-08-26T00:56:50.824Z,25.22
2022-08-26T00:59:18.568Z,25.17
2022-08-26T01:01:47.122Z,25.13
2022-08-26T01:04:17.442Z,25.08
2022-08-26T01:06:45.954Z,24.93
2022-08-26T01:09:14.422Z,24.81
2022-08-26T01:11:42.828Z,24.87
2022-08-26T01:14:12.401Z,24.92
2022-08-26T01:16:39.812Z,24.95
2022-08-26T01:19:36.211Z,24.99
2022-08-26T01:22:10.080Z,24.99
2022-08-26T01:24:38.156Z,25.01
2022-08-26T01:27:09.025Z,25.04
2022-08-26T01:29:38.088Z,25.09
2022-08-26T01:32:07.825Z,25.13
2022-08-26T01:34:36.605Z,25.18
2022-08-26T01:37:07.639Z,25.28
2022-08-26T01:39:35.534Z,25.24
2022-08-26T01:42:03.525Z,25.18
2022-08-26T01:44:32.999Z,25.18
2022-08-26T01:47:02.093Z,25.28
2022-08-26T01:49:34.469Z,25.23
2022-08-26T01:52:02.799Z,25.16
2022-08-26T01:54:30.389Z,25.22
2022-08-26T01:56:58.961Z,25.19
2022-08-26T01:59:26.397Z,25.20
2022-08-26T02:01:53.826Z,25.36
2022-08-26T02:04:23.815Z,25.36
2022-08-26T02:06:52.023Z,25.48
2022-08-26T02:09:21.903Z,25.38
2022-08-26T02:11:51.191Z,25.27
2022-08-26T02:14:27.019Z,25.15
2022-08-26T02:16:55.242Z,25.09
2022-08-26T02:19:24.699Z,25.01
2022-08-26T02:21:52.710Z,24.94
2022-08-26T02:24:22.006Z,24.86
2022-08-26T02:26:51.124Z,24.80
2022-08-26T02:29:23.608Z,24.77
2022-08-26T02:31:51.894Z,24.75
2022-08-26T02:34:21.344Z,24.70
2022-08-26T02:36:49.429Z,24.65
2022-08-26T02:39:22.300Z,24.62
2022-08-26T02:41:50.014Z,24.59
2022-08-26T02:44:17.515Z,24.54
2022-08-26T02:46:47.254Z,24.55
2022-08-26T02:49:17.316Z,24.51
2022-08-26T02:51:44.692Z,24.43
2022-08-26T02:54:12.648Z,24.22
2022-08-26T02:56:40.004Z,24.04
2022-08-26T02:59:07.347Z,24.05
2022-08-26T03:01:35.731Z,24.15
2022-08-26T03:04:04.766Z,24.20
2022-08-26T03:06:32.894Z,24.21
2022-08-26T03:09:00.116Z,24.14
2022-08-26T03:11:32.251Z,23.89
2022-08-26T03:14:00.694Z,24.00
2022-08-26T03:16:32.297Z,24.10
2022-08-26T03:19:00.308Z,24.13
2022-08-26T03:21:27.572Z,24.15
2022-08-26T03:23:54.922Z,24.16
2022-08-26T03:26:27.029Z,24.17
2022-08-26T03:29:13.719Z,24.20
2022-08-26T03:31:41.411Z,24.24
2022-08-26T03:34:09.701Z,24.30
2022-08-26T03:36:38.836Z,24.31
2022-08-26T03:39:09.132Z,24.31
2022-08-26T03:41:37.026Z,24.22
2022-08-26T03:44:06.304Z,24.17
2022-08-26T03:46:33.694Z,24.14
2022-08-26T03:49:02.096Z,24.09
2022-08-26T03:51:29.302Z,24.03
2022-08-26T03:53:56.536Z,24.02
2022-08-26T03:56:24.838Z,23.93
2022-08-26T03:58:53.912Z,23.93
2022-08-26T04:01:22.526Z,23.91
2022-08-26T04:04:00.256Z,23.85
2022-08-26T04:06:33.059Z,23.84
2022-08-26T04:09:02.346Z,23.77
2022-08-26T04:11:34.332Z,23.72
2022-08-26T04:14:04.359Z,23.75
2022-08-26T04:16:32.769Z,23.73
2022-08-26T04:21:45.106Z,23.74
2022-08-26T04:24:13.738Z,23.76
2022-08-26T04:26:42.778Z,23.80
2022-08-26T04:29:15.296Z,23.78
2022-08-26T04:31:42.615Z,23.94
2022-08-26T04:34:11.059Z,24.04
2022-08-26T04:36:38.583Z,24.07
2022-08-26T04:39:05.868Z,24.05
2022-08-26T04:41:33.475Z,23.97
2022-08-26T04:44:02.396Z,23.91
2022-08-26T04:46:30.227Z,24.03
2022-08-26T04:48:57.798Z,23.93
2022-08-26T04:51:28.065Z,23.97
2022-08-26T04:53:58.674Z,23.90
2022-08-26T04:56:27.225Z,23.83
2022-08-26T04:58:56.547Z,23.82
2022-08-26T05:01:24.157Z,23.81
2022-08-26T05:03:52.679Z,23.83
2022-08-26T05:06:20.681Z,23.86
2022-08-26T05:08:49.271Z,23.86
2022-08-26T05:11:16.567Z,23.88
2022-08-26T05:13:43.880Z,23.94
2022-08-26T05:16:12.996Z,24.01
2022-08-26T05:18:41.220Z,24.09
2022-08-26T05:21:21.956Z,24.05
2022-08-26T05:23:51.343Z,23.96
2022-08-26T05:26:23.062Z,23.91
2022-08-26T05:28:54.746Z,23.90
2022-08-26T05:31:27.287Z,23.90
2022-08-26T05:33:56.835Z,23.88
2022-08-26T05:36:26.953Z,23.86
2022-08-26T05:38:55.270Z,23.85
2022-08-26T05:41:24.971Z,23.83
2022-08-26T05:43:52.777Z,23.84
2022-08-26T05:46:20.187Z,23.85
2022-08-26T05:48:47.585Z,23.80
2022-08-26T05:51:15.128Z,23.78
2022-08-26T05:53:54.790Z,23.76
2022-08-26T05:56:27.843Z,23.77
2022-08-26T05:58:55.961Z,23.84
2022-08-26T06:01:26.031Z,23.95
2022-08-26T06:03:55.254Z,24.08
2022-08-26T06:06:28.267Z,24.11
2022-08-26T06:08:59.143Z,24.04
2022-08-26T06:11:27.906Z,24.14
2022-08-26T06:14:00.032Z,24.27
2022-08-26T06:16:30.276Z,24.48
2022-08-26T06:18:57.718Z,24.50
2022-08-26T06:21:29.078Z,24.57
2022-08-26T06:24:16.437Z,24.58
2022-08-26T06:26:50.671Z,24.72
2022-08-26T06:29:23.639Z,24.73
2022-08-26T06:31:52.920Z,24.84
2022-08-26T06:34:20.521Z,24.93
2022-08-26T06:36:49.329Z,25.00
2022-08-26T06:39:20.440Z,25.15
2022-08-26T06:41:47.798Z,25.26
2022-08-26T06:44:18.578Z,25.37
2022-08-26T06:46:46.159Z,25.44
2022-08-26T06:49:17.744Z,25.39
2022-08-26T06:51:44.973Z,25.50
2022-08-26T06:54:12.290Z,25.72
2022-08-26T06:56:41.165Z,25.79
2022-08-26T06:59:09.101Z,25.85
2022-08-26T07:01:47.143Z,25.86
2022-08-26T07:04:22.169Z,25.99
2022-08-26T07:06:52.959Z,26.09
2022-08-26T07:09:24.634Z,26.31
2022-08-26T07:11:52.668Z,26.29
2022-08-26T07:14:21.472Z,26.39
2022-08-26T07:16:49.914Z,26.49
2022-08-26T07:19:29.083Z,26.50
2022-08-26T07:21:58.830Z,26.57
2022-08-26T07:24:28.554Z,26.58
2022-08-26T07:27:00.794Z,26.57
2022-08-26T07:29:29.282Z,26.61
2022-08-26T07:31:56.633Z,26.66
2022-08-26T07:34:24.752Z,26.68
2022-08-26T07:36:53.542Z,26.79
2022-08-26T07:39:22.611Z,26.73
2022-08-26T07:41:50.219Z,26.75
2022-08-26T07:44:17.711Z,26.86
2022-08-26T07:46:52.069Z,26.99
2022-08-26T07:49:22.050Z,26.96
2022-08-26T07:51:50.324Z,26.99
2022-08-26T07:54:17.864Z,27.09
2022-08-26T07:56:46.387Z,27.12
2022-08-26T07:59:15.109Z,27.16
2022-08-26T08:01:44.997Z,27.24
2022-08-26T08:04:13.406Z,27.21
2022-08-26T08:06:41.774Z,27.23
2022-08-26T08:09:12.363Z,27.34
2022-08-26T08:11:39.605Z,27.40
2022-08-26T08:14:08.442Z,27.48
2022-08-26T08:16:41.893Z,27.54
2022-08-26T08:19:13.732Z,27.61
2022-08-26T08:21:42.386Z,27.67
2022-08-26T08:24:11.250Z,27.79
2022-08-26T08:26:38.979Z,27.87
2022-08-26T08:29:08.378Z,28.02
2022-08-26T08:31:56.280Z,28.12
2022-08-26T08:34:24.483Z,28.19
2022-08-26T08:36:54.187Z,28.34
2022-08-26T08:39:22.352Z,28.59
2022-08-26T08:42:16.125Z,28.91
2022-08-26T08:44:52.196Z,28.93
2022-08-26T08:47:25.779Z,28.81
2022-08-26T08:49:54.560Z,29.00
2022-08-26T08:52:32.312Z,29.07
2022-08-26T08:54:59.607Z,29.32
2022-08-26T08:57:45.469Z,29.43
2022-08-26T09:00:18.680Z,29.57
2022-08-26T09:03:03.885Z,29.68
2022-08-26T09:05:40.140Z,30.53
2022-08-26T09:08:11.620Z,32.11
2022-08-26T09:10:44.435Z,33.36
2022-08-26T09:13:13.813Z,34.30
2022-08-26T09:16:03.536Z,33.75
2022-08-26T09:18:33.633Z,31.16
2022-08-26T09:21:14.068Z,31.22
2022-08-26T09:23:42.862Z,32.43
2022-08-26T09:26:13.423Z,32.16
2022-08-26T09:28:41.536Z,33.31
2022-08-26T09:31:12.183Z,33.08
2022-08-26T09:33:40.275Z,31.85
2022-08-26T09:36:16.483Z,31.61
2022-08-26T09:38:44.928Z,31.23
2022-08-26T09:41:21.171Z,30.49
2022-08-26T09:44:07.924Z,30.38
2022-08-26T09:46:47.333Z,30.28
2022-08-26T09:49:21.124Z,30.25
2022-08-26T09:51:50.187Z,30.01
2022-08-26T09:54:30.463Z,30.03
2022-08-26T09:57:17.476Z,30.20
2022-08-26T09:59:44.995Z,30.13
2022-08-26T10:02:17.458Z,30.13
2022-08-26T10:04:52.312Z,30.19
2022-08-26T10:07:39.316Z,30.11
2022-08-26T10:10:09.651Z,29.95
2022-08-26T10:12:41.752Z,29.90
2022-08-26T10:15:09.971Z,29.93
2022-08-26T10:17:48.140Z,29.88
2022-08-26T10:20:23.443Z,29.68
2022-08-26T10:23:03.990Z,29.75
2022-08-26T10:25:39.213Z,29.86
2022-08-26T10:28:12.746Z,29.81
2022-08-26T10:30:46.960Z,29.84
2022-08-26T10:33:18.482Z,29.96
2022-08-26T10:35:51.453Z,29.93
2022-08-26T10:38:22.122Z,29.77
2022-08-26T10:41:18.857Z,29.88
2022-08-26T10:43:48.932Z,30.01
2022-08-26T10:46:20.728Z,30.02
2022-08-26T10:48:52.997Z,30.08
2022-08-26T10:51:23.777Z,30.07
2022-08-26T10:53:58.743Z,30.18
2022-08-26T10:56:38.363Z,30.20
2022-08-26T10:59:05.526Z,30.04
2022-08-26T11:01:43.828Z,29.61
2022-08-26T11:04:29.796Z,29.58
2022-08-26T11:07:21.073Z,29.66
2022-08-26T11:09:52.365Z,29.54
2022-08-26T11:12:39.846Z,29.54
2022-08-26T11:15:10.680Z,29.74
2022-08-26T11:17:46.334Z,29.88
2022-08-26T11:20:42.087Z,29.97
2022-08-26T11:23:29.464Z,29.87
2022-08-26T11:25:57.203Z,29.66
2022-08-26T11:28:44.997Z,29.70
2022-08-26T11:31:32.688Z,29.66
2022-08-26T11:34:10.809Z,29.72
2022-08-26T11:36:41.038Z,29.74
2022-08-26T11:39:17.777Z,29.78
2022-08-26T11:41:46.180Z,29.84
2022-08-26T11:44:17.780Z,29.80
2022-08-26T11:46:52.312Z,29.92
2022-08-26T11:49:19.657Z,29.93
2022-08-26T11:51:48.338Z,30.03
2022-08-26T11:54:32.913Z,30.11
2022-08-26T11:57:09.413Z,30.15
2022-08-26T11:59:40.430Z,29.91
2022-08-26T12:02:15.284Z,29.98
2022-08-26T12:04:46.407Z,30.00
2022-08-26T12:07:14.582Z,29.99
2022-08-26T12:09:54.900Z,29.99
2022-08-26T12:12:40.398Z,30.01
2022-08-26T12:15:16.161Z,30.01
2022-08-26T12:17:44.292Z,30.12
2022-08-26T12:20:30.786Z,30.20
2022-08-26T12:22:58.982Z,30.23
2022-08-26T12:25:28.042Z,30.19
2022-08-26T12:28:04.116Z,30.16
2022-08-26T12:30:31.350Z,30.16
2022-08-26T12:33:22.124Z,30.24
2022-08-26T12:35:54.360Z,30.30
2022-08-26T12:38:25.471Z,30.23
2022-08-26T12:40:53.120Z,30.23
2022-08-26T12:43:37.401Z,30.18
2022-08-26T12:46:06.783Z,29.80
2022-08-26T12:48:36.213Z,29.81
2022-08-26T12:51:03.889Z,29.92
2022-08-26T12:53:33.503Z,30.03
2022-08-26T12:56:05.254Z,30.01
2022-08-26T12:58:33.988Z,30.03
2022-08-26T13:01:04.249Z,30.10
2022-08-26T13:03:34.717Z,30.17
2022-08-26T13:06:16.012Z,30.25
2022-08-26T13:08:48.109Z,30.29
2022-08-26T13:11:29.379Z,30.13
2022-08-26T13:14:07.240Z,30.13
2022-08-26T13:16:35.610Z,30.15
2022-08-26T13:19:05.315Z,30.18
2022-08-26T13:21:37.656Z,30.16
2022-08-26T13:24:07.582Z,30.14
2022-08-26T13:26:35.717Z,30.04
2022-08-26T13:29:05.367Z,30.03
2022-08-26T13:31:36.026Z,30.09
2022-08-26T13:34:14.944Z,30.11
2022-08-26T13:36:45.590Z,30.16
2022-08-26T13:39:13.315Z,30.22
2022-08-26T13:41:40.792Z,30.17
2022-08-26T13:44:08.173Z,30.01
2022-08-26T13:46:35.712Z,30.01
2022-08-26T13:49:03.488Z,29.92
2022-08-26T13:51:30.852Z,30.00
2022-08-26T13:53:58.200Z,30.03
2022-08-26T13:56:27.532Z,30.08
2022-08-26T13:58:55.252Z,30.15
2022-08-26T14:01:23.285Z,30.16
2022-08-26T14:03:51.224Z,30.19
2022-08-26T14:06:21.624Z,30.16
2022-08-26T14:08:49.798Z,30.19
2022-08-26T14:11:37.280Z,30.22
2022-08-26T14:14:17.834Z,30.16
2022-08-26T14:16:59.651Z,30.01
2022-08-26T14:19:29.184Z,29.92
2022-08-26T14:21:56.872Z,29.96
2022-08-26T14:24:24.136Z,29.98
2022-08-26T14:26:51.388Z,30.02
2022-08-26T14:29:18.696Z,30.09
2022-08-26T14:31:45.990Z,30.12
2022-08-26T14:34:13.878Z,30.14
2022-08-26T14:36:41.268Z,30.16
2022-08-26T14:39:10.002Z,30.18
2022-08-26T14:41:45.689Z,30.22
2022-08-26T14:44:22.238Z,30.20
2022-08-26T14:46:50.833Z,30.14
2022-08-26T14:49:18.863Z,30.03
2022-08-26T14:51:46.285Z,30.04
2022-08-26T14:54:14.739Z,30.13
2022-08-26T14:56:44.842Z,30.23
2022-08-26T14:59:13.674Z,30.24
2022-08-26T15:01:41.108Z,30.28
2022-08-26T15:04:08.410Z,30.26
2022-08-26T15:06:36.079Z,30.24
2022-08-26T15:09:04.007Z,30.22
2022-08-26T15:11:31.353Z,30.10
2022-08-26T15:14:19.123Z,30.09
2022-08-26T15:16:51.248Z,30.12
2022-08-26T15:19:19.218Z,30.13
2022-08-26T15:21:47.420Z,30.09
2022-08-26T15:24:16.118Z,30.07
2022-08-26T15:26:44.033Z,30.03
2022-08-26T15:29:11.518Z,30.01
2022-08-26T15:31:38.799Z,29.97
2022-08-26T15:34:13.280Z,29.92
2022-08-26T15:36:44.963Z,29.88
2022-08-26T15:39:13.067Z,29.85
2022-08-26T15:41:41.163Z,29.83
2022-08-26T15:44:11.200Z,29.81
2022-08-26T15:46:38.726Z,29.78
2022-08-26T15:49:06.451Z,29.75
2022-08-26T15:51:35.911Z,29.71
2022-08-26T15:54:13.788Z,29.67
2022-08-26T15:56:41.034Z,29.63
2022-08-26T15:59:11.617Z,29.61
2022-08-26T16:01:39.672Z,29.57
2022-08-26T16:04:07.517Z,29.54
2022-08-26T16:06:36.159Z,29.49
2022-08-26T16:09:04.073Z,29.47
2022-08-26T16:11:31.558Z,29.40
2022-08-26T16:13:58.795Z,29.38
2022-08-26T16:16:27.027Z,29.34
2022-08-26T16:18:55.174Z,29.32
2022-08-26T16:21:24.698Z,29.25
2022-08-26T16:23:52.182Z,29.24
2022-08-26T16:26:21.580Z,29.22
2022-08-26T16:28:48.998Z,29.20
2022-08-26T16:31:16.776Z,29.16
2022-08-26T16:33:44.316Z,29.20
2022-08-26T16:36:11.885Z,29.21
2022-08-26T16:38:39.282Z,29.18
2022-08-26T16:41:07.385Z,29.16
2022-08-26T16:43:35.508Z,29.16
2022-08-26T16:46:05.533Z,29.14
2022-08-26T16:48:32.991Z,29.15
2022-08-26T16:51:00.226Z,29.11
2022-08-26T16:53:27.527Z,29.08
2022-08-26T16:55:55.185Z,29.07
2022-08-26T16:58:22.659Z,29.06
2022-08-26T17:00:50.135Z,29.08
2022-08-26T17:03:17.697Z,29.07
2022-08-26T17:05:44.979Z,29.07
2022-08-26T17:08:14.514Z,29.06
2022-08-26T17:10:51.806Z,29.03
2022-08-26T17:13:35.175Z,29.02
2022-08-26T17:16:04.952Z,29.04
2022-08-26T17:18:33.497Z,29.05
2022-08-26T17:21:02.355Z,29.06
2022-08-26T17:23:29.700Z,29.06
2022-08-26T17:25:57.033Z,29.06
2022-08-26T17:28:24.256Z,29.02
2022-08-26T17:30:51.641Z,29.02
2022-08-26T17:33:22.032Z,28.98
2022-08-26T17:35:53.090Z,28.97
2022-08-26T17:38:21.248Z,28.95
2022-08-26T17:40:50.262Z,28.92
2022-08-26T17:43:17.920Z,28.89
2022-08-26T17:45:45.565Z,28.87
2022-08-26T17:48:12.995Z,28.84
2022-08-26T17:50:41.303Z,28.78
2022-08-26T17:53:12.578Z,28.77
2022-08-26T17:55:47.067Z,28.73
2022-08-26T17:58:14.988Z,28.71
2022-08-26T18:00:47.227Z,28.69
2022-08-26T18:03:14.507Z,28.73
2022-08-26T18:05:42.605Z,28.70
2022-08-26T18:08:09.906Z,28.64
2022-08-26T18:10:37.369Z,28.61
2022-08-26T18:13:04.787Z,28.57
2022-08-26T18:15:32.035Z,28.60
2022-08-26T18:17:59.325Z,28.58
2022-08-26T18:20:26.776Z,28.50
2022-08-26T18:22:54.109Z,28.47
2022-08-26T18:25:21.395Z,28.39
2022-08-26T18:27:48.862Z,28.35
2022-08-26T18:30:20.728Z,28.33
2022-08-26T18:32:48.561Z,28.28
2022-08-26T18:35:15.862Z,28.24
2022-08-26T18:37:44.406Z,28.24
2022-08-26T18:40:12.842Z,28.22
2022-08-26T18:42:41.371Z,28.21
2022-08-26T18:45:09.397Z,28.21
2022-08-26T18:47:36.615Z,28.23
2022-08-26T18:50:04.610Z,28.28
2022-08-26T18:52:32.221Z,28.34
2022-08-26T18:54:59.528Z,28.46
2022-08-26T18:57:26.724Z,28.42
2022-08-26T18:59:53.957Z,28.46
2022-08-26T19:02:21.442Z,28.42
2022-08-26T19:04:49.158Z,28.43
2022-08-26T19:07:16.377Z,28.36
2022-08-26T19:09:43.708Z,28.40
2022-08-26T19:12:11.725Z,28.46
2022-08-26T19:14:39.055Z,28.39
2022-08-26T19:17:06.424Z,28.39
2022-08-26T19:19:33.773Z,28.40
2022-08-26T19:22:02.141Z,28.29
2022-08-26T19:24:29.393Z,28.24
2022-08-26T19:26:58.378Z,28.24
2022-08-26T19:29:27.099Z,28.15
2022-08-26T19:31:54.459Z,28.12
2022-08-26T19:34:21.674Z,28.09
2022-08-26T19:36:49.423Z,27.88
2022-08-26T19:39:16.715Z,27.90
2022-08-26T19:41:44.453Z,27.91
2022-08-26T19:44:33.999Z,27.83
2022-08-26T19:47:01.501Z,27.75
2022-08-26T19:49:28.705Z,27.69
2022-08-26T19:51:55.932Z,27.68
2022-08-26T19:54:23.177Z,27.64
2022-08-26T19:56:50.397Z,27.65
2022-08-26T19:59:18.080Z,27.66
2022-08-26T20:01:45.338Z,27.70
2022-08-26T20:04:12.649Z,27.74
2022-08-26T20:06:40.059Z,27.69
2022-08-26T20:09:07.281Z,27.73
2022-08-26T20:11:34.498Z,27.62
2022-08-26T20:14:01.896Z,27.54
2022-08-26T20:16:29.132Z,27.56
2022-08-26T20:19:15.121Z,27.54
2022-08-26T20:21:43.033Z,27.47
2022-08-26T20:24:12.688Z,27.37
2022-08-26T20:26:41.099Z,27.34
2022-08-26T20:29:09.414Z,27.23
2022-08-26T20:31:37.180Z,27.19
2022-08-26T20:34:05.281Z,27.11
2022-08-26T20:36:33.506Z,27.05
2022-08-26T20:39:00.898Z,26.99
2022-08-26T20:41:28.617Z,26.89
2022-08-26T20:43:56.362Z,26.80
2022-08-26T20:46:25.241Z,26.72
2022-08-26T20:48:53.160Z,26.70
2022-08-26T20:51:20.982Z,26.65
2022-08-26T20:53:48.371Z,26.62
2022-08-26T20:56:16.748Z,26.55
2022-08-26T20:58:43.972Z,26.56
2022-08-26T21:01:18.046Z,26.51
2022-08-26T21:03:45.716Z,26.54
2022-08-26T21:06:13.006Z,26.51
2022-08-26T21:08:42.606Z,26.56
2022-08-26T21:11:11.048Z,26.55
2022-08-26T21:14:01.222Z,26.51
2022-08-26T21:16:26.418Z,26.50
2022-08-26T21:18:53.701Z,26.48
2022-08-26T21:21:25.331Z,26.45
2022-08-26T21:23:52.594Z,26.37
2022-08-26T21:26:20.358Z,26.36
2022-08-26T21:28:47.639Z,26.32
2022-08-26T21:31:16.194Z,26.28
2022-08-26T21:33:43.887Z,26.25
2022-08-26T21:36:12.044Z,26.28
2022-08-26T21:38:39.859Z,26.27
2022-08-26T21:41:12.924Z,26.24
2022-08-26T21:43:42.285Z,26.24
2022-08-26T21:46:16.958Z,26.21
2022-08-26T21:48:50.738Z,26.20
2022-08-26T21:51:19.902Z,26.16
2022-08-26T21:53:47.293Z,26.12
2022-08-26T21:56:16.519Z,26.09
2022-08-26T21:58:43.893Z,26.09
2022-08-26T22:01:12.509Z,26.03
2022-08-26T22:03:47.230Z,26.02
2022-08-26T22:06:19.336Z,25.88
2022-08-26T22:08:46.635Z,25.76
2022-08-26T22:11:14.257Z,25.81
2022-08-26T22:13:42.109Z,25.88
2022-08-26T22:16:10.004Z,25.89
2022-08-26T22:18:37.762Z,25.88
2022-08-26T22:21:09.262Z,25.93
2022-08-26T22:23:37.094Z,25.92
2022-08-26T22:26:05.523Z,25.93
2022-08-26T22:28:33.157Z,25.92
2022-08-26T22:31:01.465Z,25.88
2022-08-26T22:33:29.280Z,25.89
2022-08-26T22:35:56.572Z,25.87
2022-08-26T22:38:24.046Z,25.91
2022-08-26T22:40:55.221Z,25.94
2022-08-26T22:43:26.338Z,25.93
2022-08-26T22:45:54.412Z,25.90
2022-08-26T22:48:23.716Z,25.87
2022-08-26T22:50:51.395Z,25.60
2022-08-26T22:53:18.662Z,25.42
2022-08-26T22:55:46.531Z,25.40
2022-08-26T22:58:15.388Z,25.30
2022-08-26T23:00:43.646Z,25.08
2022-08-26T23:03:11.696Z,25.08
2022-08-26T23:05:39.667Z,25.16
2022-08-26T23:08:07.600Z,25.23
2022-08-26T23:10:36.802Z,25.22
2022-08-26T23:13:05.082Z,25.23
2022-08-26T23:15:32.680Z,25.29
2022-08-26T23:18:00.471Z,25.30
2022-08-26T23:20:28.483Z,25.27
2022-08-26T23:22:56.202Z,25.32
2022-08-26T23:25:24.460Z,25.33
2022-08-26T23:27:52.420Z,25.20
2022-08-26T23:30:21.777Z,25.19
2022-08-26T23:32:49.634Z,25.25
2022-08-26T23:35:17.091Z,25.39
2022-08-26T23:37:45.078Z,25.15
2022-08-26T23:40:25.299Z,25.14
2022-08-26T23:42:53.539Z,25.22
2022-08-26T23:45:21.124Z,25.27
2022-08-26T23:47:50.614Z,25.26
2022-08-26T23:50:19.047Z,25.25
2022-08-26T23:53:05.391Z,25.27
2022-08-26T23:55:36.440Z,25.33
2022-08-26T23:58:04.456Z,25.35
